createdAt,value
2016-09-09T10:59:15.230Z,1144
2016-09-09T11:00:14.734Z,1144
2016-09-09T11:01:15.176Z,1148
2016-09-09T11:02:15.447Z,1140
2016-09-09T11:03:14.700Z,1160
2016-09-09T11:04:29.709Z,1172
2016-09-09T11:05:14.614Z,1204
2016-09-09T11:06:30.294Z,1296
2016-09-09T11:07:15.023Z,1376
2016-09-09T11:09:58.958Z,1552
2016-09-09T11:10:29.367Z,1484
2016-09-09T11:11:15.177Z,1724
2016-09-09T11:12:14.516Z,1904
2016-09-09T11:13:14.468Z,1836
2016-09-09T11:14:14.564Z,1720
2016-09-09T11:15:29.821Z,1580
2016-09-09T11:16:14.665Z,1568
2016-09-09T11:17:14.389Z,1568
2016-09-09T11:18:14.302Z,1512
2016-09-09T11:19:14.803Z,1312
2016-09-09T11:20:14.344Z,1560
2016-09-09T11:21:14.754Z,1620
2016-09-09T11:22:14.301Z,1648
2016-09-09T11:23:14.548Z,1740
2016-09-09T11:24:14.393Z,1732
2016-09-09T11:25:14.327Z,1624
2016-09-09T11:26:20.717Z,1568
2016-09-09T11:27:14.130Z,1520
2016-09-09T11:28:14.095Z,1520
2016-09-09T11:29:14.097Z,1388
2016-09-09T11:30:14.136Z,1460
2016-09-09T11:31:14.778Z,1568
2016-09-09T11:35:45.676Z,1604
2016-09-09T11:36:02.144Z,1620
2016-09-09T11:37:31.598Z,1660
2016-09-09T11:38:01.605Z,1688
2016-09-09T11:41:29.799Z,1728
2016-09-09T11:42:01.580Z,1600
2016-09-09T11:43:01.878Z,1688
2016-09-09T11:44:15.764Z,1728
2016-09-09T11:45:04.235Z,1708
2016-09-09T11:46:08.330Z,1868
2016-09-09T11:47:29.718Z,1932
2016-09-09T11:49:31.363Z,1908
2016-09-09T11:53:04.152Z,1548
2016-09-09T11:54:03.000Z,1528
2016-09-09T11:55:01.497Z,2076
2016-09-09T11:57:20.588Z,2128
2016-09-09T11:58:00.865Z,2344
2016-09-09T12:01:46.481Z,2376
2016-09-09T12:02:46.746Z,1860
2016-09-09T12:03:45.988Z,2172
2016-09-09T12:04:46.015Z,2108
2016-09-09T12:05:46.091Z,3152
2016-09-09T12:06:46.251Z,3288
2016-09-09T12:07:45.877Z,2044
2016-09-09T12:08:45.871Z,1536
2016-09-09T12:09:45.818Z,1856
2016-09-09T12:10:46.144Z,1548
2016-09-09T12:11:45.970Z,1748
2016-09-09T12:12:45.977Z,2020
2016-09-09T12:13:45.749Z,2412
2016-09-09T12:15:45.696Z,14060
2016-09-09T12:16:46.484Z,2196
2016-09-09T12:17:45.744Z,1956
2016-09-09T12:18:47.283Z,1952
2016-09-09T12:20:00.390Z,1928
2016-09-09T12:20:46.308Z,1920
2016-09-09T12:22:01.417Z,1980
2016-09-09T12:22:45.672Z,1880
2016-09-09T12:23:45.540Z,1924
2016-09-09T12:24:47.333Z,1976
2016-09-09T12:25:46.547Z,2104
2016-09-09T12:26:46.845Z,2208
2016-09-09T12:27:45.467Z,2264
2016-09-09T12:28:45.464Z,2240
2016-09-09T12:29:45.361Z,2076
2016-09-09T12:30:45.466Z,2000
2016-09-09T12:31:45.814Z,1968
2016-09-09T12:32:45.680Z,1964
2016-09-09T12:34:03.747Z,1968
2016-09-09T12:34:45.497Z,1964
2016-09-09T12:35:45.606Z,2012
2016-09-09T12:36:45.203Z,2024
2016-09-09T12:37:45.174Z,2656
2016-09-09T12:38:45.134Z,3152
2016-09-09T12:39:45.130Z,3124
2016-09-09T12:40:45.142Z,10012
2016-09-09T12:41:45.083Z,10068
2016-09-09T12:42:45.048Z,2324
2016-09-09T12:43:45.050Z,2180
2016-09-09T12:44:59.974Z,2296
2016-09-09T12:45:45.402Z,2260
2016-09-09T12:46:44.999Z,2152
2016-09-09T12:47:45.457Z,2300
2016-09-09T12:48:44.957Z,2420
2016-09-09T12:49:44.916Z,2388
2016-09-09T12:50:44.912Z,2268
2016-09-09T12:51:44.855Z,2304
2016-09-09T12:52:44.897Z,2296
2016-09-09T12:53:45.032Z,2704
2016-09-09T12:54:45.173Z,2244
2016-09-09T12:55:44.979Z,2220
2016-09-09T12:56:45.439Z,2140
2016-09-09T12:57:45.100Z,2204
2016-09-09T12:58:44.710Z,2844
2016-09-09T12:59:44.693Z,2536
2016-09-09T13:00:45.375Z,3544
2016-09-09T13:01:45.030Z,4988
2016-09-09T13:02:44.675Z,3116
2016-09-09T13:03:44.629Z,2328
2016-09-09T13:04:44.564Z,2220
2016-09-09T13:05:44.561Z,2236
2016-09-09T13:06:59.238Z,2372
2016-09-09T13:07:44.493Z,2292
2016-09-09T13:08:44.838Z,2388
2016-09-09T13:09:44.813Z,2416
2016-09-09T13:10:45.329Z,2332
2016-09-09T13:11:44.840Z,2528
2016-09-09T13:12:44.488Z,3032
2016-09-09T13:13:45.612Z,2648
2016-09-09T13:14:44.351Z,2632
2016-09-09T13:15:44.393Z,3408
2016-09-09T13:16:44.362Z,2732
2016-09-09T13:17:44.302Z,5800
2016-09-09T13:18:59.367Z,9732
2016-09-09T13:19:44.268Z,7552
2016-09-09T13:20:44.277Z,5012
2016-09-09T13:21:44.248Z,4192
2016-09-09T13:22:44.698Z,12896
2016-09-09T13:23:44.374Z,10896
2016-09-09T13:24:44.166Z,9420
2016-09-09T13:25:44.863Z,6392
2016-09-09T13:26:44.106Z,6076
2016-09-09T13:27:58.772Z,13168
2016-09-09T13:28:44.373Z,18432
2016-09-09T13:29:44.426Z,9504
2016-09-09T13:30:44.023Z,4904
2016-09-09T13:31:43.987Z,6488
2016-09-09T13:32:43.975Z,6012
2016-09-09T13:33:43.980Z,7504
2016-09-09T13:34:43.918Z,6660
2016-09-09T13:35:43.910Z,4776
2016-09-09T13:36:43.903Z,8416
2016-09-09T13:37:44.588Z,12428
2016-09-09T13:40:37.585Z,2832
2016-09-09T13:40:53.130Z,2772
2016-09-09T13:41:54.309Z,3112
2016-09-09T13:42:53.087Z,6592
2016-09-09T13:43:53.525Z,16032
2016-09-09T13:44:53.053Z,18112
2016-09-09T13:45:53.002Z,19488
2016-09-09T13:46:53.004Z,26400
2016-09-09T13:47:53.121Z,28736
2016-09-09T13:48:53.019Z,13960
2016-09-09T13:51:16.145Z,9104
2016-09-09T13:52:16.075Z,18432
2016-09-09T13:53:16.041Z,34080
2016-09-09T13:54:16.151Z,24800
2016-09-09T13:55:16.092Z,23296
2016-09-09T13:56:16.000Z,31712
2016-09-09T13:57:16.354Z,28736
2016-09-09T13:58:30.963Z,38464
2016-09-09T13:59:15.927Z,35104
2016-09-09T14:00:22.269Z,20800
2016-09-09T14:01:15.899Z,18176
2016-09-09T14:02:15.849Z,24896
2016-09-09T14:03:15.861Z,28416
2016-09-09T14:04:22.172Z,34112
2016-09-09T14:05:15.837Z,30752
2016-09-09T14:06:15.790Z,24992
2016-09-09T14:07:15.770Z,30272
2016-09-09T14:08:15.755Z,34240
2016-09-09T14:09:15.724Z,23360
2016-09-09T14:10:15.746Z,10008
2016-09-09T14:11:30.509Z,4836
2016-09-09T14:12:15.756Z,4148
2016-09-09T14:13:30.428Z,2916
2016-09-09T14:14:15.678Z,40608
2016-09-09T14:15:15.647Z,24672
2016-09-09T14:16:16.884Z,9600
2016-09-09T14:17:15.635Z,8012
2016-09-09T14:18:15.655Z,9220
2016-09-09T14:19:16.102Z,3852
2016-09-09T14:20:15.883Z,2780
2016-09-09T14:21:15.878Z,4200
2016-09-09T14:22:30.489Z,29888
2016-09-09T14:23:15.479Z,28288
2016-09-09T14:24:31.808Z,6840
2016-09-09T14:25:15.601Z,4844
2016-09-09T14:26:16.022Z,42816
2016-09-09T14:27:15.452Z,33824
2016-09-09T14:28:15.394Z,7380
2016-09-09T14:29:15.488Z,2556
2016-09-09T14:30:15.792Z,3096
2016-09-09T14:31:30.285Z,8584
2016-09-09T14:32:15.340Z,15404
2016-09-09T14:37:28.991Z,2128
2016-09-09T14:38:42.573Z,2104
2016-09-09T14:41:17.361Z,2076
2016-09-09T14:41:50.015Z,2208
2016-09-09T14:43:51.668Z,4256
2016-09-09T14:45:03.698Z,1992
2016-09-09T14:49:49.134Z,1820
2016-09-09T14:54:05.257Z,1764
2016-09-09T14:54:44.892Z,1792
2016-09-09T14:56:59.463Z,1836
2016-09-09T14:57:30.979Z,1860
2016-09-09T14:58:30.563Z,1856
2016-09-09T15:00:00.726Z,1820
2016-09-09T15:00:31.771Z,1808
2016-09-09T15:01:47.885Z,4456
2016-09-09T15:02:47.866Z,11592
2016-09-09T15:03:31.441Z,11564
2016-09-09T15:04:31.058Z,2424
2016-09-09T15:05:30.601Z,1624
2016-09-09T15:06:45.656Z,1580
2016-09-09T15:07:44.736Z,1600
2016-09-09T15:08:45.179Z,1820
2016-09-09T15:09:30.964Z,5328
2016-09-09T15:10:59.242Z,4508
2016-09-09T15:11:45.399Z,3200
2016-09-09T15:12:38.844Z,10236
2016-09-09T15:13:31.687Z,9348
2016-09-09T15:16:31.056Z,2092
2016-09-09T15:18:46.663Z,1452
2016-09-09T15:21:08.193Z,1420
2016-09-09T15:22:07.476Z,1412
2016-09-09T15:23:13.684Z,1656
2016-09-09T15:23:53.853Z,1576
2016-09-09T15:25:11.488Z,1528
2016-09-09T15:25:55.141Z,1492
2016-09-09T15:27:08.838Z,1312
2016-09-09T15:27:55.005Z,1304
2016-09-09T19:21:23.980Z,20
2016-09-09T19:22:23.987Z,20
2016-09-09T19:23:09.353Z,20
2016-09-09T19:24:22.744Z,20
2016-09-09T19:26:27.625Z,20
2016-09-09T19:27:25.756Z,20
2016-09-09T19:28:10.598Z,20
2016-09-09T19:29:22.647Z,20
2016-09-09T19:30:10.809Z,20
2016-09-09T19:32:26.969Z,20
2016-09-09T19:33:09.261Z,20
2016-09-09T19:34:23.462Z,20
2016-09-09T19:36:09.017Z,20
2016-09-09T19:37:22.928Z,20
2016-09-09T19:38:08.069Z,20
2016-09-09T19:39:39.882Z,20
2016-09-09T19:41:23.476Z,20
2016-09-09T19:43:08.971Z,20
2016-09-09T19:47:06.697Z,20
2016-09-09T19:47:47.521Z,20
2016-09-09T19:48:45.154Z,20
2016-09-09T19:49:32.676Z,20
2016-09-09T19:51:59.631Z,20
2016-09-09T19:52:33.041Z,20
2016-09-09T19:54:45.607Z,20
2016-09-09T19:55:44.785Z,20
2016-09-09T19:56:31.608Z,20
2016-09-09T19:57:46.120Z,20
2016-09-09T19:58:31.057Z,20
2016-09-09T19:59:46.343Z,20
2016-09-09T20:01:44.980Z,20
2016-09-09T20:02:45.201Z,16
2016-09-09T20:04:31.002Z,20
2016-09-09T20:05:47.495Z,20
2016-09-09T20:06:47.341Z,20
2016-09-09T20:07:30.058Z,20
2016-09-09T20:08:45.029Z,20
2016-09-09T20:09:32.244Z,20
2016-09-09T20:10:31.488Z,20
2016-09-09T20:12:32.759Z,20
2016-09-09T20:13:33.806Z,20
2016-09-09T20:14:31.210Z,20
2016-09-09T20:15:59.727Z,20
2016-09-09T20:18:30.696Z,20
2016-09-09T20:19:30.451Z,20
2016-09-09T20:20:32.337Z,20
2016-09-09T20:21:45.814Z,20
2016-09-09T20:23:30.910Z,20
2016-09-09T20:25:46.162Z,20
2016-09-09T20:26:32.028Z,20
2016-09-09T20:27:31.031Z,20
2016-09-09T20:28:30.035Z,20
2016-09-09T20:29:47.655Z,20
2016-09-09T20:30:31.297Z,20
2016-09-09T20:31:30.574Z,20
2016-09-09T20:32:32.307Z,20
2016-09-09T20:33:33.722Z,20
2016-09-09T20:34:45.461Z,20
2016-09-09T20:35:32.846Z,20
2016-09-09T20:38:44.149Z,20
2016-09-09T20:39:31.626Z,20
2016-09-09T20:40:30.443Z,20
2016-09-09T20:41:31.873Z,20
2016-09-09T20:42:29.727Z,20
2016-09-09T20:44:30.366Z,20
2016-09-09T20:45:46.949Z,20
2016-09-09T20:46:47.424Z,20
2016-09-09T20:47:34.837Z,20
2016-09-09T20:48:29.781Z,20
2016-09-09T20:49:43.217Z,20
2016-09-09T20:50:30.138Z,20
2016-09-09T20:51:45.488Z,20
2016-09-09T20:52:30.627Z,20
2016-09-09T20:53:43.686Z,20
2016-09-09T20:54:31.879Z,20
2016-09-09T20:56:45.800Z,20
2016-09-09T20:57:31.340Z,20
2016-09-09T21:00:29.804Z,20
2016-09-09T21:03:43.710Z,20
2016-09-09T21:04:42.883Z,20
2016-09-09T21:05:28.807Z,20
2016-09-09T21:06:29.151Z,20
2016-09-09T21:08:29.143Z,20
2016-09-09T21:09:29.441Z,20
2016-09-09T21:10:43.679Z,20
2016-09-09T21:11:43.219Z,20
2016-09-09T21:12:28.557Z,20
2016-09-09T21:13:29.002Z,20
2016-09-09T21:14:57.737Z,20
2016-09-09T21:15:29.530Z,20
2016-09-09T21:16:43.671Z,20
2016-09-09T21:17:29.346Z,20
2016-09-09T21:18:29.198Z,20
2016-09-09T21:19:42.461Z,20
2016-09-09T21:20:30.338Z,20
2016-09-09T21:21:29.551Z,20
2016-09-09T21:22:29.153Z,20
2016-09-09T21:23:42.699Z,20
2016-09-09T21:24:29.078Z,20
2016-09-09T21:25:28.791Z,20
2016-09-09T21:26:41.914Z,20
2016-09-09T21:27:29.436Z,20
2016-09-09T21:28:47.176Z,20
2016-09-09T21:30:30.211Z,20
2016-09-09T21:31:28.258Z,20
2016-09-09T21:32:30.499Z,20
2016-09-09T21:33:28.707Z,20
2016-09-09T21:34:29.286Z,20
2016-09-09T21:35:28.286Z,20
2016-09-09T21:36:28.988Z,20
2016-09-09T21:37:43.017Z,20
2016-09-09T21:39:30.986Z,20
2016-09-09T21:40:28.866Z,20
2016-09-09T21:42:42.646Z,20
2016-09-09T21:43:43.812Z,20
2016-09-09T21:45:28.295Z,20
2016-09-09T21:46:28.770Z,20
2016-09-09T21:47:55.936Z,20
2016-09-09T21:48:28.341Z,20
2016-09-09T21:49:41.731Z,20
2016-09-09T21:50:29.328Z,20
2016-09-09T21:51:28.309Z,20
2016-09-09T21:53:30.083Z,20
2016-09-09T21:54:42.797Z,20
2016-09-09T21:55:29.957Z,20
2016-09-09T21:57:41.677Z,20
2016-09-09T21:58:42.510Z,20
2016-09-09T21:59:28.244Z,20
2016-09-09T22:00:42.258Z,20
2016-09-09T22:01:43.116Z,20
2016-09-09T22:02:42.138Z,20
2016-09-09T22:03:29.423Z,20
2016-09-09T22:04:42.207Z,20
2016-09-09T22:05:30.519Z,20
2016-09-09T22:07:28.497Z,16
2016-09-09T22:08:42.936Z,20
2016-09-09T22:09:27.557Z,20
2016-09-09T22:11:27.898Z,20
2016-09-09T22:12:29.891Z,20
2016-09-09T22:13:42.027Z,20
2016-09-09T22:14:43.377Z,20
2016-09-09T22:15:29.448Z,20
2016-09-09T22:16:27.337Z,20
2016-09-09T22:17:28.821Z,20
2016-09-09T22:18:30.561Z,20
2016-09-09T22:19:41.944Z,20
2016-09-09T22:20:29.182Z,20
2016-09-09T22:21:41.514Z,20
2016-09-09T22:22:56.178Z,20
2016-09-09T22:23:28.995Z,20
2016-09-09T22:24:29.466Z,20
2016-09-09T22:25:28.697Z,20
2016-09-09T22:28:26.875Z,20
2016-09-09T22:29:41.896Z,20
2016-09-09T22:30:27.806Z,20
2016-09-09T22:31:41.214Z,20
2016-09-09T22:32:27.115Z,20
2016-09-09T22:33:27.540Z,20
2016-09-09T22:34:27.555Z,20
2016-09-09T22:35:27.761Z,20
2016-09-09T22:36:41.227Z,20
2016-09-09T22:37:26.492Z,20
2016-09-09T22:38:28.558Z,20
2016-09-09T22:39:26.506Z,20
2016-09-09T22:40:27.973Z,20
2016-09-09T22:41:27.556Z,20
2016-09-09T22:42:26.436Z,16
2016-09-09T22:43:26.449Z,20
2016-09-09T22:44:41.637Z,20
2016-09-09T22:45:27.534Z,20
2016-09-09T22:46:26.594Z,20
2016-09-09T22:47:41.976Z,20
2016-09-09T22:48:26.939Z,20
2016-09-09T22:49:28.695Z,20
2016-09-09T22:50:28.117Z,20
2016-09-09T22:51:28.861Z,20
2016-09-09T22:52:26.090Z,20
2016-09-09T22:53:27.295Z,20
2016-09-09T22:54:26.459Z,20
2016-09-09T22:55:26.410Z,20
2016-09-09T22:56:42.286Z,20
2016-09-09T22:57:25.749Z,20
2016-09-09T22:58:26.496Z,20
2016-09-09T22:59:26.455Z,20
2016-09-09T23:00:27.167Z,20
2016-09-09T23:01:40.566Z,20
2016-09-09T23:02:26.486Z,20
2016-09-09T23:03:26.115Z,20
2016-09-09T23:05:40.571Z,20
2016-09-09T23:06:26.266Z,20
2016-09-09T23:07:26.513Z,20
2016-09-09T23:08:40.386Z,20
2016-09-09T23:09:27.325Z,20
2016-09-09T23:10:26.060Z,20
2016-09-09T23:12:26.187Z,20
2016-09-09T23:13:26.138Z,20
2016-09-09T23:14:26.118Z,20
2016-09-09T23:15:25.456Z,20
2016-09-09T23:16:40.026Z,20
2016-09-09T23:17:26.035Z,20
2016-09-09T23:19:26.766Z,20
2016-09-09T23:20:25.976Z,20
2016-09-09T23:21:25.566Z,20
2016-09-09T23:22:25.786Z,20
2016-09-09T23:23:25.699Z,20
2016-09-09T23:24:25.617Z,20
2016-09-09T23:25:40.316Z,20
2016-09-09T23:26:25.917Z,20
2016-09-09T23:27:25.813Z,20
2016-09-09T23:29:25.695Z,20
2016-09-09T23:30:26.209Z,20
2016-09-09T23:31:26.298Z,20
2016-09-09T23:33:26.544Z,20
2016-09-09T23:35:25.725Z,20
2016-09-09T23:36:39.195Z,20
2016-09-09T23:37:40.027Z,20
2016-09-09T23:38:25.657Z,20
2016-09-09T23:40:25.496Z,20
2016-09-09T23:43:25.805Z,20
2016-09-09T23:44:25.528Z,20
2016-09-09T23:45:25.228Z,20
2016-09-09T23:47:25.247Z,20
2016-09-09T23:48:25.236Z,20
2016-09-09T23:49:25.237Z,20
2016-09-09T23:50:38.907Z,20
2016-09-09T23:52:25.316Z,20
2016-09-09T23:53:25.176Z,20
2016-09-09T23:54:25.737Z,20
2016-09-09T23:56:25.085Z,20
2016-09-09T23:57:25.777Z,20
2016-09-09T23:59:24.108Z,20
